sensor_id;sensor_type;location;lat;lon;timestamp;P1;durP1;ratioP1;P2;durP2;ratioP2
74168;SDS011;62523;53.336;83.690;2022-12-18T00:00:45;36.78;;;17.00;;
74168;SDS011;62523;53.336;83.690;2022-12-18T00:05:47;60.50;;;22.67;;
74168;SDS011;62523;53.336;83.690;2022-12-18T00:15:50;51.00;;;19.67;;
74168;SDS011;62523;53.336;83.690;2022-12-18T00:20:51;48.53;;;22.58;;
74168;SDS011;62523;53.336;83.690;2022-12-18T00:25:52;54.85;;;23.20;;
74168;SDS011;62523;53.336;83.690;2022-12-18T00:31:00;55.03;;;25.13;;
74168;SDS011;62523;53.336;83.690;2022-12-18T00:36:07;67.18;;;24.70;;
74168;SDS011;62523;53.336;83.690;2022-12-18T00:41:11;60.67;;;22.95;;
74168;SDS011;62523;53.336;83.690;2022-12-18T00:46:14;58.00;;;23.60;;
74168;SDS011;62523;53.336;83.690;2022-12-18T00:51:15;56.90;;;23.48;;
74168;SDS011;62523;53.336;83.690;2022-12-18T00:56:16;61.97;;;27.33;;
74168;SDS011;62523;53.336;83.690;2022-12-18T01:01:17;62.92;;;22.35;;
74168;SDS011;62523;53.336;83.690;2022-12-18T01:06:19;63.50;;;21.10;;
74168;SDS011;62523;53.336;83.690;2022-12-18T01:11:20;54.27;;;24.30;;
74168;SDS011;62523;53.336;83.690;2022-12-18T01:16:23;67.95;;;26.50;;
74168;SDS011;62523;53.336;83.690;2022-12-18T01:21:24;54.55;;;24.85;;
74168;SDS011;62523;53.336;83.690;2022-12-18T01:26:26;56.33;;;25.55;;
74168;SDS011;62523;53.336;83.690;2022-12-18T01:31:30;60.90;;;24.83;;
74168;SDS011;62523;53.336;83.690;2022-12-18T01:36:34;67.97;;;25.08;;
74168;SDS011;62523;53.336;83.690;2022-12-18T01:41:38;46.90;;;21.50;;
74168;SDS011;62523;53.336;83.690;2022-12-18T01:46:57;49.72;;;20.52;;
74168;SDS011;62523;53.336;83.690;2022-12-18T01:51:58;52.25;;;22.60;;
74168;SDS011;62523;53.336;83.690;2022-12-18T01:56:59;46.70;;;23.27;;
74168;SDS011;62523;53.336;83.690;2022-12-18T02:02:01;39.17;;;18.92;;
74168;SDS011;62523;53.336;83.690;2022-12-18T02:12:19;61.70;;;25.63;;
74168;SDS011;62523;53.336;83.690;2022-12-18T02:17:26;69.97;;;25.88;;
74168;SDS011;62523;53.336;83.690;2022-12-18T02:27:39;55.22;;;23.75;;
74168;SDS011;62523;53.336;83.690;2022-12-18T02:32:44;48.10;;;24.42;;
74168;SDS011;62523;53.336;83.690;2022-12-18T02:37:50;37.78;;;19.90;;
74168;SDS011;62523;53.336;83.690;2022-12-18T02:42:54;48.90;;;19.70;;
74168;SDS011;62523;53.336;83.690;2022-12-18T02:47:56;33.57;;;14.93;;
74168;SDS011;62523;53.336;83.690;2022-12-18T03:03:52;46.10;;;20.20;;
74168;SDS011;62523;53.336;83.690;2022-12-18T03:09:02;52.75;;;23.73;;
74168;SDS011;62523;53.336;83.690;2022-12-18T03:14:09;77.05;;;27.75;;
74168;SDS011;62523;53.336;83.690;2022-12-18T03:19:18;62.60;;;26.73;;
74168;SDS011;62523;53.336;83.690;2022-12-18T03:24:23;78.13;;;27.52;;
74168;SDS011;62523;53.336;83.690;2022-12-18T03:29:34;57.17;;;23.15;;
74168;SDS011;62523;53.336;83.690;2022-12-18T03:34:40;66.15;;;29.63;;
74168;SDS011;62523;53.336;83.690;2022-12-18T03:39:43;47.58;;;23.02;;
74168;SDS011;62523;53.336;83.690;2022-12-18T03:44:46;81.45;;;26.88;;
74168;SDS011;62523;53.336;83.690;2022-12-18T03:50:18;73.82;;;27.83;;
74168;SDS011;62523;53.336;83.690;2022-12-18T03:55:27;82.20;;;34.13;;
74168;SDS011;62523;53.336;83.690;2022-12-18T04:00:33;71.88;;;27.45;;
74168;SDS011;62523;53.336;83.690;2022-12-18T04:05:35;70.13;;;24.83;;
74168;SDS011;62523;53.336;83.690;2022-12-18T04:10:38;74.70;;;24.63;;
74168;SDS011;62523;53.336;83.690;2022-12-18T04:15:39;78.30;;;20.20;;
74168;SDS011;62523;53.336;83.690;2022-12-18T04:20:40;58.65;;;22.70;;
74168;SDS011;62523;53.336;83.690;2022-12-18T04:25:42;76.70;;;26.90;;
74168;SDS011;62523;53.336;83.690;2022-12-18T04:30:43;43.95;;;18.55;;
74168;SDS011;62523;53.336;83.690;2022-12-18T04:35:44;41.00;;;22.38;;
74168;SDS011;62523;53.336;83.690;2022-12-18T04:40:45;42.10;;;17.23;;
74168;SDS011;62523;53.336;83.690;2022-12-18T04:45:46;31.50;;;15.80;;
74168;SDS011;62523;53.336;83.690;2022-12-18T04:50:47;35.17;;;14.00;;
74168;SDS011;62523;53.336;83.690;2022-12-18T04:55:49;20.30;;;9.77;;
74168;SDS011;62523;53.336;83.690;2022-12-18T05:00:50;25.20;;;9.38;;
74168;SDS011;62523;53.336;83.690;2022-12-18T05:05:51;30.33;;;7.90;;
74168;SDS011;62523;53.336;83.690;2022-12-18T05:11:03;28.88;;;9.80;;
74168;SDS011;62523;53.336;83.690;2022-12-18T05:16:07;19.85;;;8.30;;
74168;SDS011;62523;53.336;83.690;2022-12-18T05:21:08;36.15;;;10.57;;
74168;SDS011;62523;53.336;83.690;2022-12-18T05:26:09;31.48;;;12.20;;
74168;SDS011;62523;53.336;83.690;2022-12-18T05:31:16;16.20;;;7.97;;
74168;SDS011;62523;53.336;83.690;2022-12-18T05:36:17;21.70;;;9.83;;
74168;SDS011;62523;53.336;83.690;2022-12-18T05:41:18;36.33;;;14.07;;
74168;SDS011;62523;53.336;83.690;2022-12-18T05:46:19;23.45;;;10.82;;
74168;SDS011;62523;53.336;83.690;2022-12-18T05:51:21;25.40;;;11.23;;
74168;SDS011;62523;53.336;83.690;2022-12-18T05:56:22;26.30;;;11.48;;
74168;SDS011;62523;53.336;83.690;2022-12-18T06:01:25;19.95;;;8.10;;
74168;SDS011;62523;53.336;83.690;2022-12-18T06:06:27;29.27;;;9.13;;
74168;SDS011;62523;53.336;83.690;2022-12-18T06:16:30;22.23;;;10.02;;
74168;SDS011;62523;53.336;83.690;2022-12-18T06:21:32;18.75;;;9.40;;
74168;SDS011;62523;53.336;83.690;2022-12-18T06:26:34;22.20;;;7.60;;
74168;SDS011;62523;53.336;83.690;2022-12-18T06:31:38;28.77;;;12.45;;
74168;SDS011;62523;53.336;83.690;2022-12-18T06:36:39;27.88;;;9.30;;
74168;SDS011;62523;53.336;83.690;2022-12-18T06:41:41;14.77;;;6.53;;
74168;SDS011;62523;53.336;83.690;2022-12-18T06:46:42;19.35;;;10.52;;
74168;SDS011;62523;53.336;83.690;2022-12-18T06:51:43;14.80;;;7.00;;
74168;SDS011;62523;53.336;83.690;2022-12-18T06:56:45;23.92;;;9.57;;
74168;SDS011;62523;53.336;83.690;2022-12-18T07:01:46;21.58;;;10.57;;
74168;SDS011;62523;53.336;83.690;2022-12-18T07:06:47;26.27;;;9.13;;
74168;SDS011;62523;53.336;83.690;2022-12-18T07:11:49;22.07;;;8.37;;
74168;SDS011;62523;53.336;83.690;2022-12-18T07:16:50;27.50;;;12.23;;
74168;SDS011;62523;53.336;83.690;2022-12-18T07:21:51;13.68;;;6.60;;
74168;SDS011;62523;53.336;83.690;2022-12-18T07:26:52;29.38;;;10.10;;
74168;SDS011;62523;53.336;83.690;2022-12-18T07:31:54;22.80;;;8.88;;
74168;SDS011;62523;53.336;83.690;2022-12-18T07:36:55;23.53;;;9.50;;
74168;SDS011;62523;53.336;83.690;2022-12-18T07:41:56;24.48;;;9.13;;
74168;SDS011;62523;53.336;83.690;2022-12-18T07:47:16;23.27;;;8.55;;
74168;SDS011;62523;53.336;83.690;2022-12-18T07:52:17;18.08;;;6.55;;
74168;SDS011;62523;53.336;83.690;2022-12-18T07:57:18;30.90;;;14.10;;
74168;SDS011;62523;53.336;83.690;2022-12-18T08:02:20;28.35;;;8.77;;
74168;SDS011;62523;53.336;83.690;2022-12-18T08:07:21;29.92;;;12.05;;
74168;SDS011;62523;53.336;83.690;2022-12-18T08:12:22;25.70;;;14.13;;
74168;SDS011;62523;53.336;83.690;2022-12-18T08:17:23;19.50;;;9.73;;
74168;SDS011;62523;53.336;83.690;2022-12-18T08:22:25;19.40;;;10.23;;
74168;SDS011;62523;53.336;83.690;2022-12-18T08:27:26;24.60;;;11.20;;
74168;SDS011;62523;53.336;83.690;2022-12-18T08:32:27;21.45;;;8.25;;
74168;SDS011;62523;53.336;83.690;2022-12-18T08:37:29;22.80;;;7.40;;
74168;SDS011;62523;53.336;83.690;2022-12-18T08:42:39;23.30;;;9.07;;
74168;SDS011;62523;53.336;83.690;2022-12-18T08:47:59;26.55;;;8.75;;
74168;SDS011;62523;53.336;83.690;2022-12-18T08:53:00;31.05;;;11.40;;
74168;SDS011;62523;53.336;83.690;2022-12-18T08:58:01;28.08;;;12.52;;
74168;SDS011;62523;53.336;83.690;2022-12-18T09:03:03;24.03;;;10.60;;
74168;SDS011;62523;53.336;83.690;2022-12-18T09:08:04;29.27;;;9.80;;
74168;SDS011;62523;53.336;83.690;2022-12-18T09:13:05;19.45;;;7.32;;
74168;SDS011;62523;53.336;83.690;2022-12-18T09:18:06;39.25;;;10.07;;
74168;SDS011;62523;53.336;83.690;2022-12-18T09:23:07;36.50;;;16.50;;
74168;SDS011;62523;53.336;83.690;2022-12-18T09:28:12;32.45;;;11.57;;
74168;SDS011;62523;53.336;83.690;2022-12-18T09:33:19;27.65;;;10.95;;
74168;SDS011;62523;53.336;83.690;2022-12-18T09:38:20;27.67;;;10.57;;
74168;SDS011;62523;53.336;83.690;2022-12-18T09:43:28;30.17;;;14.15;;
74168;SDS011;62523;53.336;83.690;2022-12-18T09:48:42;36.22;;;11.25;;
74168;SDS011;62523;53.336;83.690;2022-12-18T09:53:53;37.17;;;14.98;;
74168;SDS011;62523;53.336;83.690;2022-12-18T09:59:00;45.42;;;16.15;;
74168;SDS011;62523;53.336;83.690;2022-12-18T10:04:02;46.30;;;16.33;;
74168;SDS011;62523;53.336;83.690;2022-12-18T10:19:16;49.80;;;17.23;;
74168;SDS011;62523;53.336;83.690;2022-12-18T10:24:39;48.28;;;19.92;;
74168;SDS011;62523;53.336;83.690;2022-12-18T10:29:49;59.00;;;23.23;;
74168;SDS011;62523;53.336;83.690;2022-12-18T10:34:51;64.47;;;23.07;;
74168;SDS011;62523;53.336;83.690;2022-12-18T10:45:14;46.67;;;20.63;;
74168;SDS011;62523;53.336;83.690;2022-12-18T10:50:25;32.28;;;13.45;;
74168;SDS011;62523;53.336;83.690;2022-12-18T10:55:31;37.05;;;13.63;;
74168;SDS011;62523;53.336;83.690;2022-12-18T11:00:35;26.35;;;11.77;;
74168;SDS011;62523;53.336;83.690;2022-12-18T11:05:36;34.13;;;13.63;;
74168;SDS011;62523;53.336;83.690;2022-12-18T11:10:37;31.85;;;11.90;;
74168;SDS011;62523;53.336;83.690;2022-12-18T11:15:41;34.40;;;14.57;;
74168;SDS011;62523;53.336;83.690;2022-12-18T11:20:42;24.38;;;10.90;;
74168;SDS011;62523;53.336;83.690;2022-12-18T11:25:55;24.67;;;11.40;;
74168;SDS011;62523;53.336;83.690;2022-12-18T11:36:23;54.33;;;17.93;;
74168;SDS011;62523;53.336;83.690;2022-12-18T11:41:31;34.45;;;17.77;;
74168;SDS011;62523;53.336;83.690;2022-12-18T11:47:03;43.47;;;17.17;;
74168;SDS011;62523;53.336;83.690;2022-12-18T11:52:31;46.00;;;19.50;;
74168;SDS011;62523;53.336;83.690;2022-12-18T12:14:22;46.97;;;18.23;;
74168;SDS011;62523;53.336;83.690;2022-12-18T12:24:51;42.67;;;15.82;;
74168;SDS011;62523;53.336;83.690;2022-12-18T12:35:29;50.17;;;15.50;;
74168;SDS011;62523;53.336;83.690;2022-12-18T12:40:34;44.13;;;17.65;;
74168;SDS011;62523;53.336;83.690;2022-12-18T12:45:45;44.97;;;14.27;;
74168;SDS011;62523;53.336;83.690;2022-12-18T12:50:52;48.67;;;17.83;;
74168;SDS011;62523;53.336;83.690;2022-12-18T12:55:56;51.90;;;18.38;;
74168;SDS011;62523;53.336;83.690;2022-12-18T13:11:44;37.33;;;12.88;;
74168;SDS011;62523;53.336;83.690;2022-12-18T13:48:39;29.07;;;13.57;;
74168;SDS011;62523;53.336;83.690;2022-12-18T13:59:34;35.67;;;16.15;;
74168;SDS011;62523;53.336;83.690;2022-12-18T14:04:39;34.00;;;15.33;;
74168;SDS011;62523;53.336;83.690;2022-12-18T14:09:41;45.10;;;17.77;;
74168;SDS011;62523;53.336;83.690;2022-12-18T14:14:50;47.43;;;14.90;;
74168;SDS011;62523;53.336;83.690;2022-12-18T14:19:52;53.90;;;16.70;;
74168;SDS011;62523;53.336;83.690;2022-12-18T14:30:24;44.67;;;15.70;;
74168;SDS011;62523;53.336;83.690;2022-12-18T14:35:34;69.43;;;28.60;;
74168;SDS011;62523;53.336;83.690;2022-12-18T14:40:36;40.20;;;15.90;;
74168;SDS011;62523;53.336;83.690;2022-12-18T14:45:38;34.60;;;15.17;;
74168;SDS011;62523;53.336;83.690;2022-12-18T14:50:42;38.70;;;14.77;;
74168;SDS011;62523;53.336;83.690;2022-12-18T14:55:45;30.60;;;13.52;;
74168;SDS011;62523;53.336;83.690;2022-12-18T15:00:48;34.58;;;15.52;;
74168;SDS011;62523;53.336;83.690;2022-12-18T15:05:49;26.80;;;12.00;;
74168;SDS011;62523;53.336;83.690;2022-12-18T15:10:50;40.75;;;16.50;;
74168;SDS011;62523;53.336;83.690;2022-12-18T15:15:52;45.97;;;18.77;;
74168;SDS011;62523;53.336;83.690;2022-12-18T15:20:56;39.87;;;13.97;;
74168;SDS011;62523;53.336;83.690;2022-12-18T15:26:04;43.53;;;16.00;;
74168;SDS011;62523;53.336;83.690;2022-12-18T15:36:15;43.13;;;14.53;;
74168;SDS011;62523;53.336;83.690;2022-12-18T15:41:18;35.47;;;14.53;;
74168;SDS011;62523;53.336;83.690;2022-12-18T15:46:22;30.77;;;13.53;;
74168;SDS011;62523;53.336;83.690;2022-12-18T15:51:37;39.20;;;14.70;;
74168;SDS011;62523;53.336;83.690;2022-12-18T15:56:39;44.13;;;15.87;;
74168;SDS011;62523;53.336;83.690;2022-12-18T16:01:58;66.47;;;21.77;;
74168;SDS011;62523;53.336;83.690;2022-12-18T16:07:00;33.17;;;13.80;;
74168;SDS011;62523;53.336;83.690;2022-12-18T16:12:01;27.63;;;11.85;;
74168;SDS011;62523;53.336;83.690;2022-12-18T16:17:04;30.43;;;11.70;;
74168;SDS011;62523;53.336;83.690;2022-12-18T16:22:43;26.43;;;11.83;;
74168;SDS011;62523;53.336;83.690;2022-12-18T16:27:37;37.63;;;13.50;;
74168;SDS011;62523;53.336;83.690;2022-12-18T16:32:38;35.55;;;9.68;;
74168;SDS011;62523;53.336;83.690;2022-12-18T16:37:40;31.83;;;14.07;;
74168;SDS011;62523;53.336;83.690;2022-12-18T16:42:43;25.03;;;12.47;;
74168;SDS011;62523;53.336;83.690;2022-12-18T16:47:45;26.90;;;11.07;;
74168;SDS011;62523;53.336;83.690;2022-12-18T16:52:46;43.10;;;13.07;;
74168;SDS011;62523;53.336;83.690;2022-12-18T16:57:47;54.53;;;14.80;;
74168;SDS011;62523;53.336;83.690;2022-12-18T17:02:49;32.42;;;13.05;;
74168;SDS011;62523;53.336;83.690;2022-12-18T17:07:50;30.27;;;12.10;;
74168;SDS011;62523;53.336;83.690;2022-12-18T17:12:52;33.20;;;12.30;;
74168;SDS011;62523;53.336;83.690;2022-12-18T17:17:53;25.87;;;11.83;;
74168;SDS011;62523;53.336;83.690;2022-12-18T17:22:58;34.97;;;14.97;;
74168;SDS011;62523;53.336;83.690;2022-12-18T17:27:59;31.40;;;11.73;;
74168;SDS011;62523;53.336;83.690;2022-12-18T17:33:00;28.03;;;10.93;;
74168;SDS011;62523;53.336;83.690;2022-12-18T17:38:01;29.88;;;10.98;;
74168;SDS011;62523;53.336;83.690;2022-12-18T17:43:03;29.07;;;9.27;;
74168;SDS011;62523;53.336;83.690;2022-12-18T17:48:04;32.23;;;11.30;;
74168;SDS011;62523;53.336;83.690;2022-12-18T17:53:07;36.67;;;9.87;;
74168;SDS011;62523;53.336;83.690;2022-12-18T17:58:08;29.43;;;9.53;;
74168;SDS011;62523;53.336;83.690;2022-12-18T18:03:09;19.07;;;7.47;;
74168;SDS011;62523;53.336;83.690;2022-12-18T18:08:10;30.37;;;11.20;;
74168;SDS011;62523;53.336;83.690;2022-12-18T18:13:17;26.75;;;10.13;;
74168;SDS011;62523;53.336;83.690;2022-12-18T18:18:39;31.63;;;10.97;;
74168;SDS011;62523;53.336;83.690;2022-12-18T18:23:41;23.90;;;10.13;;
74168;SDS011;62523;53.336;83.690;2022-12-18T18:28:42;35.67;;;9.70;;
74168;SDS011;62523;53.336;83.690;2022-12-18T18:33:43;37.23;;;10.93;;
74168;SDS011;62523;53.336;83.690;2022-12-18T18:38:44;21.43;;;9.37;;
74168;SDS011;62523;53.336;83.690;2022-12-18T18:43:46;27.33;;;10.43;;
74168;SDS011;62523;53.336;83.690;2022-12-18T18:48:47;25.70;;;12.32;;
74168;SDS011;62523;53.336;83.690;2022-12-18T18:53:49;30.87;;;10.97;;
74168;SDS011;62523;53.336;83.690;2022-12-18T18:58:54;28.83;;;11.80;;
74168;SDS011;62523;53.336;83.690;2022-12-18T19:03:55;26.37;;;13.33;;
74168;SDS011;62523;53.336;83.690;2022-12-18T19:08:57;24.03;;;11.03;;
74168;SDS011;62523;53.336;83.690;2022-12-18T19:13:59;28.33;;;10.18;;
74168;SDS011;62523;53.336;83.690;2022-12-18T19:19:00;24.02;;;11.27;;
74168;SDS011;62523;53.336;83.690;2022-12-18T19:24:02;31.77;;;10.18;;
74168;SDS011;62523;53.336;83.690;2022-12-18T19:34:06;29.42;;;9.93;;
74168;SDS011;62523;53.336;83.690;2022-12-18T19:39:12;24.50;;;9.10;;
74168;SDS011;62523;53.336;83.690;2022-12-18T19:44:15;26.20;;;11.60;;
74168;SDS011;62523;53.336;83.690;2022-12-18T19:49:20;27.90;;;8.93;;
74168;SDS011;62523;53.336;83.690;2022-12-18T19:54:21;26.23;;;8.90;;
74168;SDS011;62523;53.336;83.690;2022-12-18T19:59:22;25.63;;;9.67;;
74168;SDS011;62523;53.336;83.690;2022-12-18T20:04:23;16.43;;;8.53;;
74168;SDS011;62523;53.336;83.690;2022-12-18T20:09:24;23.38;;;11.43;;
74168;SDS011;62523;53.336;83.690;2022-12-18T20:14:25;25.10;;;11.13;;
74168;SDS011;62523;53.336;83.690;2022-12-18T20:19:27;21.27;;;9.87;;
74168;SDS011;62523;53.336;83.690;2022-12-18T20:24:28;27.63;;;10.07;;
74168;SDS011;62523;53.336;83.690;2022-12-18T20:29:29;32.70;;;11.30;;
74168;SDS011;62523;53.336;83.690;2022-12-18T20:34:30;25.63;;;10.80;;
74168;SDS011;62523;53.336;83.690;2022-12-18T20:39:31;35.87;;;11.87;;
74168;SDS011;62523;53.336;83.690;2022-12-18T20:44:32;30.43;;;11.37;;
74168;SDS011;62523;53.336;83.690;2022-12-18T20:49:33;20.97;;;8.73;;
74168;SDS011;62523;53.336;83.690;2022-12-18T20:54:35;33.63;;;14.27;;
74168;SDS011;62523;53.336;83.690;2022-12-18T20:59:36;23.00;;;10.17;;
74168;SDS011;62523;53.336;83.690;2022-12-18T21:04:37;30.50;;;10.13;;
74168;SDS011;62523;53.336;83.690;2022-12-18T21:09:38;33.17;;;11.90;;
74168;SDS011;62523;53.336;83.690;2022-12-18T21:14:39;32.27;;;11.43;;
74168;SDS011;62523;53.336;83.690;2022-12-18T21:19:41;26.35;;;9.98;;
74168;SDS011;62523;53.336;83.690;2022-12-18T21:24:42;22.70;;;10.57;;
74168;SDS011;62523;53.336;83.690;2022-12-18T21:29:43;26.70;;;8.73;;
74168;SDS011;62523;53.336;83.690;2022-12-18T21:34:45;21.70;;;9.70;;
74168;SDS011;62523;53.336;83.690;2022-12-18T21:39:46;34.50;;;14.80;;
74168;SDS011;62523;53.336;83.690;2022-12-18T21:44:47;42.93;;;14.37;;
74168;SDS011;62523;53.336;83.690;2022-12-18T21:49:52;32.25;;;11.85;;
74168;SDS011;62523;53.336;83.690;2022-12-18T21:54:53;24.53;;;11.83;;
74168;SDS011;62523;53.336;83.690;2022-12-18T21:59:54;30.37;;;10.90;;
74168;SDS011;62523;53.336;83.690;2022-12-18T22:04:56;29.53;;;11.50;;
74168;SDS011;62523;53.336;83.690;2022-12-18T22:09:57;31.37;;;10.10;;
74168;SDS011;62523;53.336;83.690;2022-12-18T22:14:58;33.87;;;10.83;;
74168;SDS011;62523;53.336;83.690;2022-12-18T22:19:59;34.20;;;10.13;;
74168;SDS011;62523;53.336;83.690;2022-12-18T22:25:00;34.43;;;11.50;;
74168;SDS011;62523;53.336;83.690;2022-12-18T22:30:02;37.73;;;14.13;;
74168;SDS011;62523;53.336;83.690;2022-12-18T22:35:04;40.03;;;12.77;;
74168;SDS011;62523;53.336;83.690;2022-12-18T22:40:06;19.73;;;9.93;;
74168;SDS011;62523;53.336;83.690;2022-12-18T22:45:07;21.00;;;9.30;;
74168;SDS011;62523;53.336;83.690;2022-12-18T22:50:10;32.25;;;11.07;;
74168;SDS011;62523;53.336;83.690;2022-12-18T22:55:13;34.23;;;15.50;;
74168;SDS011;62523;53.336;83.690;2022-12-18T23:00:14;22.67;;;12.15;;
74168;SDS011;62523;53.336;83.690;2022-12-18T23:05:17;24.73;;;12.10;;
74168;SDS011;62523;53.336;83.690;2022-12-18T23:10:18;28.77;;;11.17;;
74168;SDS011;62523;53.336;83.690;2022-12-18T23:15:19;29.03;;;10.23;;
74168;SDS011;62523;53.336;83.690;2022-12-18T23:20:20;32.87;;;10.83;;
74168;SDS011;62523;53.336;83.690;2022-12-18T23:25:21;27.90;;;12.10;;
74168;SDS011;62523;53.336;83.690;2022-12-18T23:30:24;25.57;;;11.87;;
74168;SDS011;62523;53.336;83.690;2022-12-18T23:35:25;24.33;;;10.53;;
74168;SDS011;62523;53.336;83.690;2022-12-18T23:40:26;38.87;;;10.43;;
74168;SDS011;62523;53.336;83.690;2022-12-18T23:45:28;28.87;;;9.10;;
74168;SDS011;62523;53.336;83.690;2022-12-18T23:50:29;36.70;;;13.33;;
74168;SDS011;62523;53.336;83.690;2022-12-18T23:55:40;29.23;;;11.60;;
